Airfield :
LOGIN :

Register | Disclaimer

   EN    FR    IT 

 










Legend :    VFR   Marginal VFR   IFR   Intensive IFR   Very Intensive IFR
Visi :
Ceiling :
>= 8 km
>= 3000ft
5 to 8 km
1000 to 3000 ft
1500m to 5 km
500 to 1000 ft
800 to 1500m
200 to 500 ft
< 800m
< 200 ft
Symbols :   Thunderstorms  Fog  Heavy snow  Heavy precipitations  Wind > 20 kt
SIGMETs :     Misc.  Thunderstorms  Icing  Turbulence  Mountain Waves  Volcanic Ashes






- Airport Elevation : 8 ft
- IATA code : JCU


GECE - Ceuta Heliport

CURRENT METAR :
  • 151000Z AUTO VRB05KT CAVOK 24/16 Q1012

EXPIRED METARs :
  • 150930Z AUTO 02007KT CAVOK 24/15 Q1012
  • 150900Z AUTO 03006KT 360V100 CAVOK 24/15 Q1012
  • 150830Z AUTO 23008KT 150V300 CAVOK 24/15 Q1012
  • 150800Z AUTO 24008KT 190V270 CAVOK 24/16 Q1012
  • 150730Z AUTO 24009KT 200V320 CAVOK 23/16 Q1012

TAF TAF GECE
Valid from the 15 at 09:00 until the 16 at 09:00 UTC


150800Z 1509/1609 25012KT CAVOK TX26/1511Z TN20/1606Z
PROB30
TEMPO 1522/1609 27015G25KT



MET'MAP, your aeronautical weather chart ! - Copyright ORBIFLY December 2007 - Disclaimer

ORBIFLY MET'MAP TEAM :

Programming & Development : Alexandra Zaïnal
Original concept : Baudouin d'Aumeries
Technical & hardware support : Manuel Goepfert
Assistance : Marc-Olivier Méhu




SOURCES & CREDITS :

   NOAA